sensor_id;sensor_type;location;lat;lon;timestamp;pressure;altitude;pressure_sealevel;temperature;humidity
9905;BME280;4991;43.566;27.820;2023-04-25T00:02:03;98204.06;;;10.68;100.00
9905;BME280;4991;43.566;27.820;2023-04-25T00:04:29;98202.09;;;10.60;100.00
9905;BME280;4991;43.566;27.820;2023-04-25T00:06:55;98200.22;;;10.69;100.00
9905;BME280;4991;43.566;27.820;2023-04-25T00:09:22;98198.75;;;10.71;100.00
9905;BME280;4991;43.566;27.820;2023-04-25T00:11:48;98202.59;;;10.70;100.00
9905;BME280;4991;43.566;27.820;2023-04-25T00:14:14;98198.44;;;10.64;100.00
9905;BME280;4991;43.566;27.820;2023-04-25T00:16:39;98194.13;;;10.72;100.00
9905;BME280;4991;43.566;27.820;2023-04-25T00:19:06;98190.59;;;10.71;100.00
9905;BME280;4991;43.566;27.820;2023-04-25T00:21:33;98189.16;;;10.65;100.00
9905;BME280;4991;43.566;27.820;2023-04-25T00:23:59;98190.28;;;10.73;100.00
9905;BME280;4991;43.566;27.820;2023-04-25T00:26:25;98191.22;;;10.77;100.00
9905;BME280;4991;43.566;27.820;2023-04-25T00:28:51;98182.09;;;10.81;100.00
9905;BME280;4991;43.566;27.820;2023-04-25T00:31:16;98179.09;;;10.83;100.00
9905;BME280;4991;43.566;27.820;2023-04-25T00:33:42;98173.63;;;10.83;100.00
9905;BME280;4991;43.566;27.820;2023-04-25T00:36:08;98173.63;;;10.83;100.00
9905;BME280;4991;43.566;27.820;2023-04-25T00:38:34;98167.38;;;10.82;100.00
9905;BME280;4991;43.566;27.820;2023-04-25T00:41:00;98173.78;;;10.78;100.00
9905;BME280;4991;43.566;27.820;2023-04-25T00:43:26;98165.47;;;10.83;100.00
9905;BME280;4991;43.566;27.820;2023-04-25T00:45:52;98166.06;;;10.80;100.00
9905;BME280;4991;43.566;27.820;2023-04-25T00:48:21;98157.13;;;10.71;100.00
9905;BME280;4991;43.566;27.820;2023-04-25T00:50:55;98159.53;;;10.72;100.00
9905;BME280;4991;43.566;27.820;2023-04-25T00:53:22;98150.53;;;10.72;100.00
9905;BME280;4991;43.566;27.820;2023-04-25T00:55:48;98151.00;;;10.57;100.00
9905;BME280;4991;43.566;27.820;2023-04-25T00:58:17;98149.44;;;10.56;100.00
9905;BME280;4991;43.566;27.820;2023-04-25T01:00:44;98146.53;;;10.52;100.00
9905;BME280;4991;43.566;27.820;2023-04-25T01:03:10;98153.25;;;10.55;100.00
9905;BME280;4991;43.566;27.820;2023-04-25T01:05:36;98148.44;;;10.52;100.00
9905;BME280;4991;43.566;27.820;2023-04-25T01:08:02;98148.75;;;10.50;100.00
9905;BME280;4991;43.566;27.820;2023-04-25T01:10:27;98151.00;;;10.48;100.00
9905;BME280;4991;43.566;27.820;2023-04-25T01:12:53;98142.97;;;10.43;100.00
9905;BME280;4991;43.566;27.820;2023-04-25T01:15:19;98144.13;;;10.42;100.00
9905;BME280;4991;43.566;27.820;2023-04-25T01:17:44;98141.06;;;10.35;100.00
9905;BME280;4991;43.566;27.820;2023-04-25T01:20:11;98144.44;;;10.40;100.00
9905;BME280;4991;43.566;27.820;2023-04-25T01:22:37;98140.25;;;10.43;100.00
9905;BME280;4991;43.566;27.820;2023-04-25T01:25:03;98141.88;;;10.44;100.00
9905;BME280;4991;43.566;27.820;2023-04-25T01:27:30;98141.72;;;10.40;100.00
9905;BME280;4991;43.566;27.820;2023-04-25T01:29:56;98135.94;;;10.33;100.00
9905;BME280;4991;43.566;27.820;2023-04-25T01:32:23;98130.50;;;10.33;100.00
9905;BME280;4991;43.566;27.820;2023-04-25T01:34:49;98133.03;;;10.30;100.00
9905;BME280;4991;43.566;27.820;2023-04-25T01:37:16;98128.09;;;10.32;100.00
9905;BME280;4991;43.566;27.820;2023-04-25T01:39:42;98118.78;;;10.33;100.00
9905;BME280;4991;43.566;27.820;2023-04-25T01:42:08;98117.53;;;10.30;100.00
9905;BME280;4991;43.566;27.820;2023-04-25T01:44:33;98120.88;;;10.27;100.00
9905;BME280;4991;43.566;27.820;2023-04-25T01:46:59;98105.66;;;10.26;100.00
9905;BME280;4991;43.566;27.820;2023-04-25T01:49:25;98102.00;;;10.22;100.00
9905;BME280;4991;43.566;27.820;2023-04-25T01:51:50;98098.94;;;10.24;100.00
9905;BME280;4991;43.566;27.820;2023-04-25T01:54:16;98108.25;;;10.23;100.00
9905;BME280;4991;43.566;27.820;2023-04-25T01:56:43;98110.00;;;10.19;100.00
9905;BME280;4991;43.566;27.820;2023-04-25T01:59:14;98098.47;;;10.22;100.00
9905;BME280;4991;43.566;27.820;2023-04-25T02:01:40;98092.38;;;10.16;100.00
9905;BME280;4991;43.566;27.820;2023-04-25T02:04:06;98093.97;;;10.17;100.00
9905;BME280;4991;43.566;27.820;2023-04-25T02:06:31;98099.56;;;10.12;100.00
9905;BME280;4991;43.566;27.820;2023-04-25T02:08:57;98083.44;;;10.16;100.00
9905;BME280;4991;43.566;27.820;2023-04-25T02:11:23;98088.88;;;10.16;100.00
9905;BME280;4991;43.566;27.820;2023-04-25T02:13:48;98079.56;;;10.17;100.00
9905;BME280;4991;43.566;27.820;2023-04-25T02:16:14;98087.06;;;10.11;100.00
9905;BME280;4991;43.566;27.820;2023-04-25T02:18:40;98082.13;;;10.13;100.00
9905;BME280;4991;43.566;27.820;2023-04-25T02:21:05;98072.00;;;10.05;100.00
9905;BME280;4991;43.566;27.820;2023-04-25T02:23:31;98073.91;;;10.05;100.00
9905;BME280;4991;43.566;27.820;2023-04-25T02:25:57;98075.84;;;10.04;100.00
9905;BME280;4991;43.566;27.820;2023-04-25T02:28:24;98070.91;;;10.06;100.00
9905;BME280;4991;43.566;27.820;2023-04-25T02:30:51;98067.03;;;9.99;100.00
9905;BME280;4991;43.566;27.820;2023-04-25T02:33:17;98070.06;;;9.97;100.00
9905;BME280;4991;43.566;27.820;2023-04-25T02:35:42;98065.28;;;9.94;100.00
9905;BME280;4991;43.566;27.820;2023-04-25T02:38:08;98069.91;;;9.94;100.00
9905;BME280;4991;43.566;27.820;2023-04-25T02:40:34;98065.75;;;9.88;100.00
9905;BME280;4991;43.566;27.820;2023-04-25T02:42:59;98065.41;;;9.81;100.00
9905;BME280;4991;43.566;27.820;2023-04-25T02:45:25;98065.41;;;9.81;100.00
9905;BME280;4991;43.566;27.820;2023-04-25T02:47:52;98061.56;;;9.82;100.00
9905;BME280;4991;43.566;27.820;2023-04-25T02:50:18;98060.78;;;9.81;100.00
9905;BME280;4991;43.566;27.820;2023-04-25T02:52:44;98053.72;;;9.80;100.00
9905;BME280;4991;43.566;27.820;2023-04-25T02:55:10;98042.81;;;9.72;100.00
9905;BME280;4991;43.566;27.820;2023-04-25T02:57:36;98044.13;;;9.74;100.00
9905;BME280;4991;43.566;27.820;2023-04-25T03:00:02;98043.75;;;9.67;100.00
9905;BME280;4991;43.566;27.820;2023-04-25T03:02:30;98039.13;;;9.68;100.00
9905;BME280;4991;43.566;27.820;2023-04-25T03:04:55;98041.69;;;9.64;100.00
9905;BME280;4991;43.566;27.820;2023-04-25T03:07:21;98041.50;;;9.61;100.00
9905;BME280;4991;43.566;27.820;2023-04-25T03:09:46;98041.03;;;9.59;100.00
9905;BME280;4991;43.566;27.820;2023-04-25T03:12:12;98040.25;;;9.58;100.00
9905;BME280;4991;43.566;27.820;2023-04-25T03:14:37;98044.38;;;9.56;100.00
9905;BME280;4991;43.566;27.820;2023-04-25T03:17:03;98045.97;;;9.57;100.00
9905;BME280;4991;43.566;27.820;2023-04-25T03:19:29;98051.41;;;9.57;100.00
9905;BME280;4991;43.566;27.820;2023-04-25T03:21:54;98046.47;;;9.59;100.00
9905;BME280;4991;43.566;27.820;2023-04-25T03:24:20;98048.41;;;9.58;100.00
9905;BME280;4991;43.566;27.820;2023-04-25T03:26:46;98043.91;;;9.62;100.00
9905;BME280;4991;43.566;27.820;2023-04-25T03:29:11;98042.16;;;9.58;100.00
9905;BME280;4991;43.566;27.820;2023-04-25T03:31:37;98036.06;;;9.61;100.00
9905;BME280;4991;43.566;27.820;2023-04-25T03:34:02;98048.69;;;9.57;100.00
9905;BME280;4991;43.566;27.820;2023-04-25T03:36:28;98041.84;;;9.59;100.00
9905;BME280;4991;43.566;27.820;2023-04-25T03:38:54;98028.25;;;9.59;100.00
9905;BME280;4991;43.566;27.820;2023-04-25T03:41:19;98029.50;;;9.62;100.00
9905;BME280;4991;43.566;27.820;2023-04-25T03:43:45;98026.16;;;9.56;100.00
9905;BME280;4991;43.566;27.820;2023-04-25T03:46:11;98028.38;;;9.54;100.00
9905;BME280;4991;43.566;27.820;2023-04-25T03:48:36;98022.13;;;9.54;100.00
9905;BME280;4991;43.566;27.820;2023-04-25T03:51:02;98015.78;;;9.58;100.00
9905;BME280;4991;43.566;27.820;2023-04-25T03:53:28;98007.13;;;9.56;100.00
9905;BME280;4991;43.566;27.820;2023-04-25T03:55:54;98013.19;;;9.62;100.00
9905;BME280;4991;43.566;27.820;2023-04-25T03:58:19;98010.19;;;9.63;100.00
9905;BME280;4991;43.566;27.820;2023-04-25T04:00:45;98015.00;;;9.66;100.00
9905;BME280;4991;43.566;27.820;2023-04-25T04:03:10;98019.63;;;9.74;100.00
9905;BME280;4991;43.566;27.820;2023-04-25T04:05:36;98015.47;;;9.77;100.00
9905;BME280;4991;43.566;27.820;2023-04-25T04:08:02;98017.72;;;9.83;100.00
9905;BME280;4991;43.566;27.820;2023-04-25T04:10:27;98014.41;;;9.86;100.00
9905;BME280;4991;43.566;27.820;2023-04-25T04:12:53;98020.47;;;9.92;100.00
9905;BME280;4991;43.566;27.820;2023-04-25T04:15:18;98011.19;;;9.93;100.00
9905;BME280;4991;43.566;27.820;2023-04-25T04:17:44;98014.53;;;9.98;100.00
9905;BME280;4991;43.566;27.820;2023-04-25T04:20:10;98016.66;;;10.01;100.00
9905;BME280;4991;43.566;27.820;2023-04-25T04:22:38;98017.78;;;10.09;100.00
9905;BME280;4991;43.566;27.820;2023-04-25T04:25:04;98025.63;;;10.10;100.00
9905;BME280;4991;43.566;27.820;2023-04-25T04:27:32;98029.19;;;10.19;100.00
9905;BME280;4991;43.566;27.820;2023-04-25T04:29:57;98026.28;;;10.24;100.00
9905;BME280;4991;43.566;27.820;2023-04-25T04:32:23;98027.41;;;10.32;100.00
9905;BME280;4991;43.566;27.820;2023-04-25T04:34:49;98022.13;;;10.35;100.00
9905;BME280;4991;43.566;27.820;2023-04-25T04:37:15;98027.56;;;10.35;100.00
9905;BME280;4991;43.566;27.820;2023-04-25T04:39:40;98018.59;;;10.43;100.00
9905;BME280;4991;43.566;27.820;2023-04-25T04:42:06;98018.25;;;10.45;100.00
9905;BME280;4991;43.566;27.820;2023-04-25T04:44:32;98026.59;;;10.49;100.00
9905;BME280;4991;43.566;27.820;2023-04-25T04:46:59;98032.03;;;10.57;100.00
9905;BME280;4991;43.566;27.820;2023-04-25T04:49:24;98024.97;;;10.65;100.00
9905;BME280;4991;43.566;27.820;2023-04-25T04:51:50;98022.06;;;10.70;100.00
9905;BME280;4991;43.566;27.820;2023-04-25T04:54:16;98019.34;;;10.78;100.00
9905;BME280;4991;43.566;27.820;2023-04-25T04:56:41;98017.75;;;10.86;100.00
9905;BME280;4991;43.566;27.820;2023-04-25T04:59:07;98010.50;;;10.90;100.00
9905;BME280;4991;43.566;27.820;2023-04-25T05:01:33;98011.28;;;10.99;100.00
9905;BME280;4991;43.566;27.820;2023-04-25T05:04:01;98005.00;;;11.07;100.00
9905;BME280;4991;43.566;27.820;2023-04-25T05:06:28;97994.88;;;11.16;100.00
9905;BME280;4991;43.566;27.820;2023-04-25T05:08:59;97998.50;;;11.28;100.00
9905;BME280;4991;43.566;27.820;2023-04-25T05:11:25;98003.44;;;11.35;100.00
9905;BME280;4991;43.566;27.820;2023-04-25T05:13:54;97996.63;;;11.49;100.00
9905;BME280;4991;43.566;27.820;2023-04-25T05:16:20;97997.06;;;11.60;100.00
9905;BME280;4991;43.566;27.820;2023-04-25T05:18:46;97995.91;;;11.69;100.00
9905;BME280;4991;43.566;27.820;2023-04-25T05:21:12;97999.84;;;11.81;100.00
9905;BME280;4991;43.566;27.820;2023-04-25T05:23:38;97995.16;;;11.90;100.00
9905;BME280;4991;43.566;27.820;2023-04-25T05:26:03;97995.09;;;11.98;100.00
9905;BME280;4991;43.566;27.820;2023-04-25T05:28:29;97984.44;;;12.05;100.00
9905;BME280;4991;43.566;27.820;2023-04-25T05:30:56;97980.03;;;12.13;100.00
9905;BME280;4991;43.566;27.820;2023-04-25T05:33:21;97976.78;;;12.19;100.00
9905;BME280;4991;43.566;27.820;2023-04-25T05:35:47;97977.03;;;12.26;100.00
9905;BME280;4991;43.566;27.820;2023-04-25T05:38:13;97978.22;;;12.37;100.00
9905;BME280;4991;43.566;27.820;2023-04-25T05:40:38;97977.13;;;12.50;100.00
9905;BME280;4991;43.566;27.820;2023-04-25T05:43:04;97976.72;;;12.60;100.00
9905;BME280;4991;43.566;27.820;2023-04-25T05:45:30;97992.22;;;12.68;100.00
9905;BME280;4991;43.566;27.820;2023-04-25T05:47:55;97986.66;;;12.77;100.00
9905;BME280;4991;43.566;27.820;2023-04-25T05:50:21;97982.28;;;12.84;100.00
9905;BME280;4991;43.566;27.820;2023-04-25T05:52:46;97980.78;;;12.87;100.00
9905;BME280;4991;43.566;27.820;2023-04-25T05:55:12;97974.75;;;12.93;100.00
9905;BME280;4991;43.566;27.820;2023-04-25T05:57:38;97973.91;;;13.02;100.00
9905;BME280;4991;43.566;27.820;2023-04-25T06:00:08;97976.41;;;13.07;100.00
9905;BME280;4991;43.566;27.820;2023-04-25T06:02:34;97968.56;;;13.17;100.00
9905;BME280;4991;43.566;27.820;2023-04-25T06:05:00;97964.22;;;13.28;100.00
9905;BME280;4991;43.566;27.820;2023-04-25T06:07:29;97963.91;;;13.42;100.00
9905;BME280;4991;43.566;27.820;2023-04-25T06:09:57;97963.69;;;13.59;100.00
9905;BME280;4991;43.566;27.820;2023-04-25T06:12:23;97961.81;;;13.75;100.00
9905;BME280;4991;43.566;27.820;2023-04-25T06:14:49;97950.50;;;14.00;100.00
9905;BME280;4991;43.566;27.820;2023-04-25T06:17:15;97953.84;;;14.34;100.00
9905;BME280;4991;43.566;27.820;2023-04-25T06:19:40;97949.16;;;14.62;100.00
9905;BME280;4991;43.566;27.820;2023-04-25T06:22:07;97945.38;;;14.82;100.00
9905;BME280;4991;43.566;27.820;2023-04-25T06:24:33;97947.34;;;15.12;100.00
9905;BME280;4991;43.566;27.820;2023-04-25T06:26:59;97945.06;;;15.30;100.00
9905;BME280;4991;43.566;27.820;2023-04-25T06:29:25;97939.28;;;15.66;100.00
9905;BME280;4991;43.566;27.820;2023-04-25T06:31:50;97931.50;;;15.87;100.00
9905;BME280;4991;43.566;27.820;2023-04-25T06:34:16;97932.34;;;16.26;100.00
9905;BME280;4991;43.566;27.820;2023-04-25T06:36:42;97931.56;;;16.44;100.00
9905;BME280;4991;43.566;27.820;2023-04-25T06:39:09;97926.13;;;16.67;100.00
9905;BME280;4991;43.566;27.820;2023-04-25T06:41:35;97923.81;;;16.69;100.00
9905;BME280;4991;43.566;27.820;2023-04-25T06:44:01;97933.94;;;16.65;100.00
9905;BME280;4991;43.566;27.820;2023-04-25T06:46:27;97933.22;;;16.68;100.00
9905;BME280;4991;43.566;27.820;2023-04-25T06:48:52;97929.16;;;16.62;100.00
9905;BME280;4991;43.566;27.820;2023-04-25T06:51:18;97929.81;;;16.74;100.00
9905;BME280;4991;43.566;27.820;2023-04-25T06:53:44;97918.31;;;16.92;100.00
9905;BME280;4991;43.566;27.820;2023-04-25T06:56:09;97926.09;;;16.86;100.00
9905;BME280;4991;43.566;27.820;2023-04-25T06:58:35;97927.78;;;16.71;100.00
9905;BME280;4991;43.566;27.820;2023-04-25T07:01:01;97932.97;;;16.76;100.00
9905;BME280;4991;43.566;27.820;2023-04-25T07:03:26;97932.00;;;16.88;100.00
9905;BME280;4991;43.566;27.820;2023-04-25T07:05:52;97930.50;;;16.91;100.00
9905;BME280;4991;43.566;27.820;2023-04-25T07:08:17;97923.53;;;16.97;100.00
9905;BME280;4991;43.566;27.820;2023-04-25T07:10:43;97921.81;;;16.89;100.00
9905;BME280;4991;43.566;27.820;2023-04-25T07:13:09;97922.75;;;16.96;100.00
9905;BME280;4991;43.566;27.820;2023-04-25T07:15:34;97922.09;;;16.84;100.00
9905;BME280;4991;43.566;27.820;2023-04-25T07:18:00;97922.22;;;16.68;100.00
9905;BME280;4991;43.566;27.820;2023-04-25T07:20:25;97913.75;;;16.99;100.00
9905;BME280;4991;43.566;27.820;2023-04-25T07:22:53;97920.00;;;16.96;100.00
9905;BME280;4991;43.566;27.820;2023-04-25T07:25:19;97914.28;;;16.86;100.00
9905;BME280;4991;43.566;27.820;2023-04-25T07:27:45;97913.34;;;16.55;100.00
9905;BME280;4991;43.566;27.820;2023-04-25T07:30:11;97908.97;;;16.35;100.00
9905;BME280;4991;43.566;27.820;2023-04-25T07:32:38;97916.88;;;16.18;100.00
9905;BME280;4991;43.566;27.820;2023-04-25T07:35:04;97908.00;;;16.24;100.00
9905;BME280;4991;43.566;27.820;2023-04-25T07:37:29;97902.19;;;16.29;100.00
9905;BME280;4991;43.566;27.820;2023-04-25T07:39:55;97906.88;;;16.29;100.00
9905;BME280;4991;43.566;27.820;2023-04-25T07:42:21;97899.22;;;16.38;100.00
9905;BME280;4991;43.566;27.820;2023-04-25T07:44:46;97894.91;;;16.56;100.00
9905;BME280;4991;43.566;27.820;2023-04-25T07:47:12;97897.22;;;16.76;100.00
9905;BME280;4991;43.566;27.820;2023-04-25T07:49:39;97882.25;;;16.97;100.00
9905;BME280;4991;43.566;27.820;2023-04-25T07:52:05;97886.00;;;17.08;100.00
9905;BME280;4991;43.566;27.820;2023-04-25T07:54:31;97885.25;;;17.11;100.00
9905;BME280;4991;43.566;27.820;2023-04-25T07:56:58;97881.94;;;17.24;100.00
9905;BME280;4991;43.566;27.820;2023-04-25T07:59:24;97875.03;;;17.34;100.00
9905;BME280;4991;43.566;27.820;2023-04-25T08:01:50;97867.44;;;17.27;100.00
9905;BME280;4991;43.566;27.820;2023-04-25T08:04:16;97861.91;;;17.50;100.00
9905;BME280;4991;43.566;27.820;2023-04-25T08:06:42;97871.03;;;17.54;100.00
9905;BME280;4991;43.566;27.820;2023-04-25T08:09:08;97867.31;;;17.69;100.00
9905;BME280;4991;43.566;27.820;2023-04-25T08:11:34;97868.03;;;17.66;100.00
9905;BME280;4991;43.566;27.820;2023-04-25T08:14:00;97861.75;;;17.65;100.00
9905;BME280;4991;43.566;27.820;2023-04-25T08:16:26;97861.56;;;17.81;100.00
9905;BME280;4991;43.566;27.820;2023-04-25T08:18:51;97858.16;;;17.91;100.00
9905;BME280;4991;43.566;27.820;2023-04-25T08:21:17;97863.91;;;18.09;100.00
9905;BME280;4991;43.566;27.820;2023-04-25T08:23:42;97872.22;;;18.12;100.00
9905;BME280;4991;43.566;27.820;2023-04-25T08:26:08;97869.50;;;18.16;100.00
9905;BME280;4991;43.566;27.820;2023-04-25T08:28:34;97883.88;;;18.02;100.00
9905;BME280;4991;43.566;27.820;2023-04-25T08:30:59;97883.84;;;17.98;100.00
9905;BME280;4991;43.566;27.820;2023-04-25T08:33:25;97875.00;;;18.16;100.00
9905;BME280;4991;43.566;27.820;2023-04-25T08:35:51;97868.84;;;18.29;100.00
9905;BME280;4991;43.566;27.820;2023-04-25T08:38:18;97871.91;;;18.50;100.00
9905;BME280;4991;43.566;27.820;2023-04-25T08:40:44;97868.47;;;18.64;100.00
9905;BME280;4991;43.566;27.820;2023-04-25T08:43:13;97881.94;;;18.72;100.00
9905;BME280;4991;43.566;27.820;2023-04-25T08:45:41;97871.31;;;18.71;100.00
9905;BME280;4991;43.566;27.820;2023-04-25T08:48:15;97882.16;;;18.53;100.00
9905;BME280;4991;43.566;27.820;2023-04-25T08:50:49;97872.19;;;18.42;100.00
9905;BME280;4991;43.566;27.820;2023-04-25T08:53:17;97873.88;;;18.53;100.00
9905;BME280;4991;43.566;27.820;2023-04-25T08:55:46;97886.88;;;18.53;100.00
9905;BME280;4991;43.566;27.820;2023-04-25T08:58:13;97881.22;;;18.79;100.00
9905;BME280;4991;43.566;27.820;2023-04-25T09:00:39;97884.13;;;18.93;100.00
9905;BME280;4991;43.566;27.820;2023-04-25T09:03:05;97893.84;;;19.23;100.00
9905;BME280;4991;43.566;27.820;2023-04-25T09:05:34;97899.66;;;19.08;100.00
9905;BME280;4991;43.566;27.820;2023-04-25T09:08:01;97886.34;;;19.20;100.00
9905;BME280;4991;43.566;27.820;2023-04-25T09:10:27;97891.25;;;19.38;100.00
9905;BME280;4991;43.566;27.820;2023-04-25T09:13:03;97883.81;;;19.49;100.00
9905;BME280;4991;43.566;27.820;2023-04-25T09:15:30;97895.25;;;19.47;100.00
9905;BME280;4991;43.566;27.820;2023-04-25T09:17:57;97887.50;;;19.63;100.00
9905;BME280;4991;43.566;27.820;2023-04-25T09:20:23;97884.81;;;19.81;100.00
9905;BME280;4991;43.566;27.820;2023-04-25T09:23:01;97876.28;;;20.10;100.00
9905;BME280;4991;43.566;27.820;2023-04-25T09:25:33;97884.25;;;20.15;100.00
9905;BME280;4991;43.566;27.820;2023-04-25T09:28:03;97881.16;;;20.38;100.00
9905;BME280;4991;43.566;27.820;2023-04-25T09:30:30;97885.50;;;20.35;100.00
9905;BME280;4991;43.566;27.820;2023-04-25T09:32:57;97885.06;;;20.26;100.00
9905;BME280;4991;43.566;27.820;2023-04-25T09:35:29;97876.88;;;20.47;100.00
9905;BME280;4991;43.566;27.820;2023-04-25T09:37:55;97873.81;;;19.88;100.00
9905;BME280;4991;43.566;27.820;2023-04-25T09:40:21;97880.34;;;20.27;100.00
9905;BME280;4991;43.566;27.820;2023-04-25T09:42:46;97870.41;;;20.15;100.00
9905;BME280;4991;43.566;27.820;2023-04-25T09:45:13;97862.25;;;20.54;100.00
9905;BME280;4991;43.566;27.820;2023-04-25T09:47:40;97861.75;;;20.17;100.00
9905;BME280;4991;43.566;27.820;2023-04-25T09:50:14;97868.13;;;20.35;100.00
9905;BME280;4991;43.566;27.820;2023-04-25T09:52:41;97865.84;;;20.69;100.00
9905;BME280;4991;43.566;27.820;2023-04-25T09:55:07;97865.84;;;20.69;100.00
9905;BME280;4991;43.566;27.820;2023-04-25T09:57:32;97856.78;;;20.86;100.00
9905;BME280;4991;43.566;27.820;2023-04-25T10:00:00;97858.34;;;20.76;100.00
9905;BME280;4991;43.566;27.820;2023-04-25T10:02:27;97864.69;;;20.84;100.00
9905;BME280;4991;43.566;27.820;2023-04-25T10:04:54;97851.28;;;21.24;100.00
9905;BME280;4991;43.566;27.820;2023-04-25T10:07:22;97856.75;;;21.84;100.00
9905;BME280;4991;43.566;27.820;2023-04-25T10:09:54;97851.22;;;23.25;100.00
9905;BME280;4991;43.566;27.820;2023-04-25T10:12:22;97844.44;;;23.33;100.00
9905;BME280;4991;43.566;27.820;2023-04-25T10:14:48;97844.66;;;22.43;100.00
9905;BME280;4991;43.566;27.820;2023-04-25T10:17:14;97839.81;;;21.43;100.00
9905;BME280;4991;43.566;27.820;2023-04-25T10:19:39;97846.56;;;21.04;100.00
9905;BME280;4991;43.566;27.820;2023-04-25T10:22:17;97841.34;;;20.71;100.00
9905;BME280;4991;43.566;27.820;2023-04-25T10:24:44;97836.22;;;20.83;100.00
9905;BME280;4991;43.566;27.820;2023-04-25T10:27:12;97846.06;;;20.60;100.00
9905;BME280;4991;43.566;27.820;2023-04-25T10:29:39;97835.47;;;21.00;100.00
9905;BME280;4991;43.566;27.820;2023-04-25T10:32:07;97831.91;;;21.38;100.00
9905;BME280;4991;43.566;27.820;2023-04-25T10:34:43;97831.44;;;21.71;100.00
9905;BME280;4991;43.566;27.820;2023-04-25T10:37:12;97829.09;;;21.49;100.00
9905;BME280;4991;43.566;27.820;2023-04-25T10:39:40;97831.13;;;21.24;100.00
9905;BME280;4991;43.566;27.820;2023-04-25T10:42:07;97817.31;;;22.38;100.00
9905;BME280;4991;43.566;27.820;2023-04-25T10:44:37;97820.97;;;24.46;100.00
9905;BME280;4991;43.566;27.820;2023-04-25T10:47:07;97820.97;;;24.46;100.00
9905;BME280;4991;43.566;27.820;2023-04-25T10:54:51;97819.38;;;22.89;100.00
9905;BME280;4991;43.566;27.820;2023-04-25T10:57:46;97812.09;;;24.24;100.00
9905;BME280;4991;43.566;27.820;2023-04-25T11:00:19;97815.78;;;25.70;100.00
9905;BME280;4991;43.566;27.820;2023-04-25T11:02:58;97807.16;;;25.41;100.00
9905;BME280;4991;43.566;27.820;2023-04-25T11:05:34;97811.84;;;24.42;100.00
9905;BME280;4991;43.566;27.820;2023-04-25T11:08:00;97811.75;;;23.00;100.00
9905;BME280;4991;43.566;27.820;2023-04-25T11:10:30;97802.28;;;22.32;100.00
9905;BME280;4991;43.566;27.820;2023-04-25T11:12:59;97806.81;;;21.98;100.00
9905;BME280;4991;43.566;27.820;2023-04-25T11:15:28;97802.59;;;22.48;100.00
9905;BME280;4991;43.566;27.820;2023-04-25T11:17:54;97810.72;;;22.08;100.00
9905;BME280;4991;43.566;27.820;2023-04-25T11:20:21;97801.31;;;21.81;100.00
9905;BME280;4991;43.566;27.820;2023-04-25T11:22:47;97795.38;;;21.86;100.00
9905;BME280;4991;43.566;27.820;2023-04-25T11:25:14;97800.09;;;21.92;100.00
9905;BME280;4991;43.566;27.820;2023-04-25T11:27:50;97800.16;;;21.85;100.00
9905;BME280;4991;43.566;27.820;2023-04-25T11:30:17;97796.56;;;21.74;100.00
9905;BME280;4991;43.566;27.820;2023-04-25T11:32:42;97798.53;;;21.91;100.00
9905;BME280;4991;43.566;27.820;2023-04-25T11:35:09;97796.31;;;22.34;100.00
9905;BME280;4991;43.566;27.820;2023-04-25T11:37:35;97803.75;;;22.51;100.00
9905;BME280;4991;43.566;27.820;2023-04-25T11:40:03;97798.28;;;22.40;100.00
9905;BME280;4991;43.566;27.820;2023-04-25T11:42:30;97789.69;;;22.14;100.00
9905;BME280;4991;43.566;27.820;2023-04-25T11:44:55;97797.53;;;22.94;100.00
9905;BME280;4991;43.566;27.820;2023-04-25T11:47:30;97791.75;;;23.19;100.00
9905;BME280;4991;43.566;27.820;2023-04-25T11:50:00;97796.75;;;22.90;100.00
9905;BME280;4991;43.566;27.820;2023-04-25T11:52:41;97782.03;;;22.97;100.00
9905;BME280;4991;43.566;27.820;2023-04-25T11:55:09;97783.72;;;22.84;100.00
9905;BME280;4991;43.566;27.820;2023-04-25T11:57:35;97776.00;;;22.58;100.00
9905;BME280;4991;43.566;27.820;2023-04-25T12:00:20;97770.31;;;22.75;100.00
9905;BME280;4991;43.566;27.820;2023-04-25T12:02:50;97774.78;;;22.59;100.00
9905;BME280;4991;43.566;27.820;2023-04-25T12:05:16;97770.03;;;22.59;100.00
9905;BME280;4991;43.566;27.820;2023-04-25T12:07:42;97765.31;;;22.49;100.00
9905;BME280;4991;43.566;27.820;2023-04-25T12:10:13;97759.91;;;22.32;100.00
9905;BME280;4991;43.566;27.820;2023-04-25T12:12:43;97760.38;;;22.16;100.00
9905;BME280;4991;43.566;27.820;2023-04-25T12:15:24;97759.31;;;21.93;100.00
9905;BME280;4991;43.566;27.820;2023-04-25T12:17:51;97753.03;;;21.74;100.00
9905;BME280;4991;43.566;27.820;2023-04-25T12:20:21;97761.03;;;21.44;100.00
9905;BME280;4991;43.566;27.820;2023-04-25T12:22:50;97749.94;;;21.55;100.00
9905;BME280;4991;43.566;27.820;2023-04-25T12:25:41;97761.84;;;21.38;100.00
9905;BME280;4991;43.566;27.820;2023-04-25T12:30:59;97750.44;;;20.59;100.00
9905;BME280;4991;43.566;27.820;2023-04-25T12:33:28;97751.19;;;20.38;100.00
9905;BME280;4991;43.566;27.820;2023-04-25T12:35:54;97749.59;;;20.16;100.00
9905;BME280;4991;43.566;27.820;2023-04-25T12:38:27;97747.66;;;20.41;100.00
9905;BME280;4991;43.566;27.820;2023-04-25T12:40:53;97736.22;;;20.64;100.00
9905;BME280;4991;43.566;27.820;2023-04-25T12:43:19;97732.22;;;20.93;100.00
9905;BME280;4991;43.566;27.820;2023-04-25T12:45:49;97734.56;;;21.26;100.00
9905;BME280;4991;43.566;27.820;2023-04-25T12:48:16;97731.78;;;21.40;100.00
9905;BME280;4991;43.566;27.820;2023-04-25T12:50:42;97726.22;;;21.43;100.00
9905;BME280;4991;43.566;27.820;2023-04-25T12:53:09;97720.34;;;21.24;100.00
9905;BME280;4991;43.566;27.820;2023-04-25T12:55:35;97730.97;;;21.36;100.00
9905;BME280;4991;43.566;27.820;2023-04-25T12:58:00;97737.66;;;21.59;100.00
9905;BME280;4991;43.566;27.820;2023-04-25T13:00:26;97727.06;;;21.19;100.00
9905;BME280;4991;43.566;27.820;2023-04-25T13:02:52;97730.25;;;20.90;100.00
9905;BME280;4991;43.566;27.820;2023-04-25T13:05:18;97731.47;;;20.82;100.00
9905;BME280;4991;43.566;27.820;2023-04-25T13:07:43;97735.78;;;20.86;100.00
9905;BME280;4991;43.566;27.820;2023-04-25T13:10:09;97740.84;;;20.07;100.00